Historyczne dane pomiarowe

Dodano dane terminowe – wersja testowa.

Dane z okresu 1951-2019

Wersja bazy: 1.34 [2019-03-16, lista zmian], aktualizacja planowana na 2019-04-15

Dane meteo z obszaru Polski uzyskane na podstawie danych udostępnionych przez Instytut Meteorologii i Gospodarki Wodnej – Państwowy Instytut Badawczy.

 

Wybierz Datę:    

       

TemperaturaWilgotnośćWiatrCiśnienieOpadyŚniegCzas trwania zjawisk
 Stacja t tx tn tng RH VA  wxwx mslp ppp RRR   cm mm wxwxwxwxwxwxwx
1961-08-14 14.8 19.2 10.7- 76.8- 4.7 1.7---- 0.0------------
1961-08-13 13.6 18.0 11.6- 92.0- 8.0 2.7---- 5.9------------
1961-08-12 18.7 21.8 16.5- 86.8- 7.7 2.0---- 5.7------------
1961-08-11 23.3 31.7 17.4- 75.5- 2.7 2.3---- 0.0------------
1961-08-10 22.5 27.8 17.0- 82.3- 5.0 2.0---- 0.0------------
1961-08-09 22.0 28.6 14.0- 66.8- 1.3 1.3---- 7.2------------
1961-08-08 18.7 22.3 15.8- 74.5- 7.0 1.0---- 0.0------------
1961-08-07 22.5 30.3 17.7- 67.8- 2.3 2.7---- 3.2------------
1961-08-06 23.5 30.1 12.2- 63.3- 1.0 2.0---- 0.0------------
1961-08-05 17.3 23.3 13.8- 79.3- 5.0 2.0---- 0.0------------
1961-08-04 15.8 21.1 9.5- 74.0- 4.7 1.7---- 0.0------------
1961-08-03 19.2 24.3 11.8- 71.5- 5.0 2.3---- 1.0------------
1961-08-02 18.9 25.5 8.3- 70.8- 0.3 1.0---- 0.0------------
1961-08-01 14.8 20.0 11.7- 75.0- 4.7 3.0---- 0.0------------
1961-07-31 14.4 18.7 11.6- 83.3- 6.7 3.3---- 0.2------------
1961-07-30 13.9 16.3 11.8- 96.5- 8.0 1.7---- 10.2------------
1961-07-29 14.5 18.4 12.9- 97.5- 8.0 2.0---- 11.7------------
1961-07-28 20.3 26.9 15.0- 80.3- 6.3 3.0---- 1.3------------
1961-07-27 21.2 26.5 12.5- 60.8- 5.0 2.3---- 0.1------------
1961-07-26 17.1 20.4 11.5- 67.8- 7.0 2.3---- 0.0------------
1961-07-25 15.2 19.5 9.9- 67.5- 5.3 2.3---- 0.0------------
1961-07-24 13.9 19.4 10.1- 80.0- 5.3 2.0---- 0.0------------
1961-07-23 14.7 19.2 10.6- 76.0- 5.0 1.7---- 0.0------------
1961-07-22 14.3 18.8 11.6- 87.3- 6.7 2.7---- 1.0------------
1961-07-21 15.3 20.5 11.5- 83.8- 5.3 2.7---- 1.0------------
1961-07-20 16.8 22.4 6.5- 77.8- 5.0 0.7---- 0.0------------
1961-07-19 15.3 21.4 7.1- 80.0- 4.3 1.0---- 0.4------------
1961-07-18 13.6 18.5 8.1- 83.8- 5.3 2.3---- 0.0------------
1961-07-17 15.4 23.4 9.5- 83.5- 5.3 1.3---- 6.7------------
1961-07-16 17.1 23.8 9.5- 78.8- 7.3 3.3---- 0.1------------
1961-07-15 16.3 23.1 7.2- 77.3- 7.0 1.3---- 0.1------------
1961-07-14 15.4 23.2 12.0- 69.8- 4.3 2.3---- 0.0------------
1961-07-13 23.1 28.7 12.3- 63.0- 6.0 2.3---- 0.3------------
1961-07-12 18.5 25.1 7.3- 78.5- 3.0 1.0---- 1.9------------
1961-07-11 15.1 21.5 8.2- 67.3- 3.0 2.3---- 0.0------------
1961-07-10 13.7 19.7 10.1- 80.0- 7.3 2.3---- 0.0------------
1961-07-09 16.2 23.4 6.5- 68.3- 5.0 2.0---- 1.3------------
1961-07-08 13.9 20.2 8.5- 71.8- 2.7 0.3---- 0.0------------
1961-07-07 13.1 18.0 8.5- 79.0- 6.7 2.0---- 0.2------------
1961-07-06 13.3 17.4 6.6- 69.5- 5.7 2.7---- 0.0------------
1961-07-05 15.3 19.1 13.1- 78.0- 5.0 2.3---- 0.0------------
1961-07-04 21.3 28.4 16.9- 75.8- 6.0 2.7---- 11.1------------
1961-07-03 23.3 30.2 11.8- 55.5- 0.0 1.0---- 0.0------------
1961-07-02 20.8 27.7 9.5- 66.0- 0.0 0.3---- 0.0------------
1961-07-01 19.4 25.0 10.9- 67.3- 1.3 1.3---- 0.0------------
1961-06-30 17.8 23.7 8.7- 74.3- 1.7 2.3---- 0.0------------
1961-06-29 15.0 19.5 7.0- 74.3- 4.0 3.0---- 0.0------------
1961-06-28 14.1 24.2 11.0- 87.8- 5.7 3.7---- 9.0------------
1961-06-27 24.9 31.0 15.3- 60.0- 3.7 4.0---- 1.9------------
1961-06-26 21.4 29.6 15.3- 76.5- 4.0 2.3---- 12.6------------
1961-06-25 20.3 27.8 11.2- 63.5- 4.3 2.7---- 0.0------------
1961-06-24 18.0 24.2 10.2- 60.3- 0.7 3.7---- 0.0------------
1961-06-23 17.1 22.4 12.0- 82.0- 6.7 2.7---- 3.7------------
1961-06-22 15.3 22.0 8.7- 64.8- 2.3 1.3---- 0.0------------
1961-06-21 16.0 23.0 4.0- 63.3- 2.0 1.7---- 0.0------------
1961-06-20 14.1 20.0 8.1- 66.5- 1.3 2.3---- 0.0------------
1961-06-19 18.3 22.9 14.5- 82.5- 3.0 2.7---- 0.1------------
1961-06-18 19.2 24.7 10.3- 62.0- 3.7 1.3---- 0.0------------
1961-06-17 15.8 21.9 8.0- 67.0- 2.0 2.3---- 0.0------------
1961-06-16 13.6 17.8 9.3- 78.5- 6.3 2.3---- 0.0------------
1271.3 ms

 

Źródłem pochodzenia danych jest Instytut Meteorologii i Gospodarki Wodnej – Państwowy Instytut Badawczy. Dane Instytutu Meteorologii i Gospodarki Wodnej – Państwowego Instytutu Badawczego zostały przetworzone.

Dane źródłowe można odnaleźć na stronie https://dane.imgw.pl